Sunday, October 21, 2018, 6:48 AM EDT
Back to Local

KLEB, Lebanon Municipal Airport

Location: Lebanon, NH, United States Lat: 43.633
Local Time: 6:48 AM EDT (10:48 GMT) Lon: -72.3
Time Zone: US/Eastern Elev: 597 ft

Show me the last for .
Show Decoded

2018-10-21 05:53 METAR KLEB 210953Z 36010G17KT 10SM CLR 06/M03 A2969 RMK AO2 SLP053 T00561028 =
2018-10-21 04:53 METAR KLEB 210853Z AUTO 35012G17KT 10SM SCT060 06/M02 A2966 RMK AO2 SLP042
                 T00611022 51014 =
2018-10-21 03:53 METAR KLEB 210753Z AUTO 01005KT 10SM OVC060 06/00 A2964 RMK AO2 SLP036 T00560000
                 =
2018-10-21 02:53 METAR KLEB 210653Z AUTO 02003KT 10SM FEW050 OVC110 05/00 A2964 RMK AO2 SLP035
                 T00500000 =
2018-10-21 01:53 METAR KLEB 210553Z AUTO 11003KT 10SM OVC120 03/01 A2962 RMK AO2 SLP029 T00330006
                 10083 20028 53010 =
2018-10-21 00:53 METAR KLEB 210453Z AUTO 00000KT 10SM CLR 03/01 A2960 RMK AO2 SLP023 T00330006
                 401720028 =
2018-10-20 23:53 METAR KLEB 210353Z AUTO 00000KT 10SM CLR 03/00 A2958 RMK AO2 SLP017 T00330000 =
2018-10-20 22:53 METAR KLEB 210253Z AUTO 00000KT 10SM BKN120 06/02 A2959 RMK AO2 SLP018 T00610017
                 53011 =
2018-10-20 21:53 METAR KLEB 210153Z 17004KT 10SM CLR 06/01 A2957 RMK AO2 SLP013 T00610011 =
2018-10-20 20:53 METAR KLEB 210053Z 17006KT 10SM CLR 08/01 A2955 RMK AO2 SLP007 T00830011 =
2018-10-20 19:53 METAR KLEB 202353Z 17003KT 10SM CLR 07/02 A2955 RMK AO2 SLP007 T00720022 10172
                 20056 52012 =
2018-10-20 18:53 METAR KLEB 202253Z 00000KT 10SM CLR 07/02 A2955 RMK AO2 SLP006 T00670017 =
2018-10-20 17:53 METAR KLEB 202153Z 00000KT 10SM CLR 13/M01 A2952 RMK AO2 SLP995 T01331006 =
2018-10-20 16:53 METAR KLEB 202053Z 26011KT 10SM CLR 16/00 A2952 RMK AO2 SLP992 T01560000 55005 =
2018-10-20 15:53 METAR KLEB 201953Z 26012G18KT 10SM CLR 17/01 A2951 RMK AO2 SLP990 T01670006 =
2018-10-20 14:53 METAR KLEB 201853Z 26010G18KT 10SM FEW065 17/01 A2952 RMK AO2 SLP993 T01670011 =
2018-10-20 13:53 METAR KLEB 201753Z 22012KT 200V260 10SM BKN055 16/02 A2953 RMK AO2 PK WND
                 22026/1657 SLP997 60000 T01610022 10167 20111 56015 =
2018-10-20 12:53 METAR KLEB 201653Z 25010G28KT 220V280 10SM FEW050 17/02 A2955 RMK AO2 PK WND
                 22028/1647 SLP003 T01670022 =
2018-10-20 11:53 METAR KLEB 201553Z 23014G22KT 10SM FEW037 SCT047 BKN055 15/04 A2956 RMK AO2
                 SLP007 T01500044 =
2018-10-20 10:53 METAR KLEB 201453Z 23007G15KT 10SM OVC036 13/05 A2958 RMK AO2 SLP014 60000
                 T01330050 50002 =
2018-10-20 09:53 METAR KLEB 201353Z 21007KT 10SM OVC036 13/06 A2958 RMK AO2 SLP015 T01280056 =
2018-10-20 08:53 METAR KLEB 201253Z 21006KT 10SM OVC035 11/06 A2958 RMK AO2 RAB32E50 SLP016 P0000
                 T01110056 =
2018-10-20 07:53 METAR KLEB 201153Z 18012KT 10SM OVC035 11/05 A2957 RMK AO2 SLP013 T01110050
                 10111 20106 56012 =
2018-10-20 06:53 METAR KLEB 201053Z 19010KT 10SM OVC041 11/04 A2958 RMK AO2 SLP013 T01110044 =

Support USWX by starting your Amazon purchase here.